createdAt,value
2022-10-18T00:01:06.414Z,8.82
2022-10-18T00:03:40.376Z,8.72
2022-10-18T00:06:11.866Z,8.64
2022-10-18T00:08:39.988Z,8.57
2022-10-18T00:11:08.353Z,8.51
2022-10-18T00:13:37.241Z,8.44
2022-10-18T00:16:10.868Z,8.36
2022-10-18T00:18:38.857Z,8.30
2022-10-18T00:21:11.551Z,8.24
2022-10-18T00:23:39.495Z,8.18
2022-10-18T00:26:19.461Z,8.12
2022-10-18T00:28:51.856Z,8.07
2022-10-18T00:31:32.017Z,8.02
2022-10-18T00:34:02.218Z,7.97
2022-10-18T00:36:32.523Z,7.91
2022-10-18T00:39:01.343Z,7.86
2022-10-18T00:41:31.560Z,7.81
2022-10-18T00:44:07.311Z,7.76
2022-10-18T00:46:37.567Z,7.71
2022-10-18T00:49:17.579Z,7.67
2022-10-18T00:51:52.013Z,7.65
2022-10-18T00:54:21.254Z,7.66
2022-10-18T00:56:49.890Z,7.64
2022-10-18T00:59:19.208Z,7.63
2022-10-18T01:01:47.447Z,7.63
2022-10-18T01:04:16.956Z,7.64
2022-10-18T01:07:22.672Z,7.64
2022-10-18T01:09:53.291Z,7.65
2022-10-18T01:12:52.216Z,7.66
2022-10-18T01:15:30.667Z,7.67
2022-10-18T01:18:10.682Z,7.69
2022-10-18T01:21:07.810Z,7.70
2022-10-18T01:24:09.505Z,7.73
2022-10-18T01:26:59.333Z,7.75
2022-10-18T01:29:49.822Z,7.81
2022-10-18T01:32:26.648Z,7.85
2022-10-18T01:35:01.364Z,7.88
2022-10-18T01:37:31.782Z,7.91
2022-10-18T01:40:03.694Z,7.91
2022-10-18T01:42:32.607Z,7.92
2022-10-18T01:45:03.291Z,7.92
2022-10-18T01:47:31.781Z,7.93
2022-10-18T01:50:06.432Z,7.97
2022-10-18T01:52:34.511Z,7.99
2022-10-18T01:55:03.760Z,7.98
2022-10-18T01:57:45.242Z,7.96
2022-10-18T02:04:53.972Z,7.92
2022-10-18T02:07:36.637Z,7.87
2022-10-18T02:10:22.933Z,7.80
2022-10-18T02:12:52.539Z,7.73
2022-10-18T02:15:24.573Z,7.67
2022-10-18T02:17:55.968Z,7.60
2022-10-18T02:20:26.242Z,7.54
2022-10-18T02:22:56.760Z,7.46
2022-10-18T02:25:28.174Z,7.37
2022-10-18T02:27:56.697Z,7.30
2022-10-18T02:30:41.126Z,7.24
2022-10-18T02:33:28.087Z,7.20
2022-10-18T02:36:02.741Z,7.16
2022-10-18T02:38:32.474Z,7.13
2022-10-18T02:41:00.305Z,7.11
2022-10-18T02:43:28.163Z,7.08
2022-10-18T02:45:56.015Z,7.04
2022-10-18T02:48:23.920Z,7.02
2022-10-18T02:50:51.798Z,6.98
2022-10-18T02:53:19.622Z,6.96
2022-10-18T02:55:47.451Z,6.93
2022-10-18T02:58:15.322Z,6.93
2022-10-18T03:00:43.200Z,6.92
2022-10-18T03:03:10.996Z,6.92
2022-10-18T03:05:38.824Z,6.93
2022-10-18T03:08:06.772Z,6.94
2022-10-18T03:10:34.667Z,6.96
2022-10-18T03:13:02.437Z,6.97
2022-10-18T03:15:30.291Z,7.00
2022-10-18T03:17:58.216Z,7.04
2022-10-18T03:20:26.064Z,7.09
2022-10-18T03:22:53.834Z,7.15
2022-10-18T03:25:22.033Z,7.19
2022-10-18T03:27:49.810Z,7.25
2022-10-18T03:30:17.715Z,7.30
2022-10-18T03:32:45.604Z,7.33
2022-10-18T03:35:13.452Z,7.35
2022-10-18T03:37:41.409Z,7.36
2022-10-18T03:40:09.555Z,7.37
2022-10-18T03:42:37.399Z,7.40
2022-10-18T03:45:06.376Z,7.43
2022-10-18T03:47:34.965Z,7.44
2022-10-18T03:50:02.967Z,7.45
2022-10-18T03:52:31.039Z,7.47
2022-10-18T03:54:59.251Z,7.50
2022-10-18T03:57:27.084Z,7.51
2022-10-18T03:59:54.928Z,7.50
2022-10-18T04:02:22.671Z,7.48
2022-10-18T04:04:50.595Z,7.45
2022-10-18T04:07:18.796Z,7.42
2022-10-18T04:09:46.659Z,7.38
2022-10-18T04:12:14.681Z,7.32
2022-10-18T04:14:42.524Z,7.25
2022-10-18T04:17:10.377Z,7.21
2022-10-18T04:19:38.117Z,7.16
2022-10-18T04:22:05.934Z,7.08
2022-10-18T04:24:33.800Z,7.01
2022-10-18T04:27:01.665Z,6.96
2022-10-18T04:29:29.571Z,6.91
2022-10-18T04:31:57.368Z,6.85
2022-10-18T04:34:25.469Z,6.78
2022-10-18T04:36:54.262Z,6.72
2022-10-18T04:39:22.057Z,6.67
2022-10-18T04:41:49.821Z,6.63
2022-10-18T04:44:17.563Z,6.60
2022-10-18T04:46:45.421Z,6.57
2022-10-18T04:49:13.296Z,6.54
2022-10-18T04:51:41.107Z,6.51
2022-10-18T04:54:08.986Z,6.48
2022-10-18T04:56:36.893Z,6.46
2022-10-18T04:59:04.886Z,6.45
2022-10-18T05:01:32.713Z,6.46
2022-10-18T05:04:00.688Z,6.49
2022-10-18T05:06:28.585Z,6.53
2022-10-18T05:08:56.504Z,6.58
2022-10-18T05:11:24.323Z,6.63
2022-10-18T05:13:52.366Z,6.69
2022-10-18T05:16:20.220Z,6.74
2022-10-18T05:18:48.073Z,6.81
2022-10-18T05:21:16.809Z,6.90
2022-10-18T05:23:44.640Z,6.98
2022-10-18T05:26:12.537Z,7.08
2022-10-18T05:28:41.329Z,7.21
2022-10-18T05:31:11.666Z,7.33
2022-10-18T05:33:42.800Z,7.47
2022-10-18T05:36:11.449Z,7.61
2022-10-18T05:38:42.981Z,7.76
2022-10-18T05:41:12.582Z,7.88
2022-10-18T05:43:41.366Z,8.00
2022-10-18T05:46:14.599Z,8.07
2022-10-18T05:48:50.248Z,8.09
2022-10-18T05:51:19.279Z,8.14
2022-10-18T05:53:47.405Z,8.20
2022-10-18T05:56:15.800Z,8.22
2022-10-18T05:58:44.316Z,8.26
2022-10-18T06:01:12.217Z,8.28
2022-10-18T06:03:40.003Z,8.33
2022-10-18T06:06:10.693Z,8.36
2022-10-18T06:08:40.076Z,8.30
2022-10-18T06:11:13.263Z,8.35
2022-10-18T06:13:46.157Z,8.42
2022-10-18T06:16:17.101Z,8.49
2022-10-18T06:18:49.976Z,8.57
2022-10-18T06:21:19.051Z,8.70
2022-10-18T06:23:54.735Z,8.82
2022-10-18T06:26:23.343Z,8.92
2022-10-18T06:28:51.332Z,9.04
2022-10-18T06:31:20.728Z,9.16
2022-10-18T06:33:49.367Z,9.25
2022-10-18T06:36:19.929Z,9.34
2022-10-18T06:38:48.433Z,9.45
2022-10-18T06:41:16.775Z,9.59
2022-10-18T06:43:48.574Z,9.71
2022-10-18T06:46:17.012Z,9.80
2022-10-18T06:48:45.453Z,9.88
2022-10-18T06:51:13.602Z,9.94
2022-10-18T06:53:44.437Z,10.01
2022-10-18T06:56:16.655Z,10.05
2022-10-18T06:58:44.572Z,10.10
2022-10-18T07:01:16.117Z,10.16
2022-10-18T07:03:45.663Z,10.23
2022-10-18T07:06:15.372Z,10.27
2022-10-18T07:08:43.691Z,10.30
2022-10-18T07:11:17.425Z,10.35
2022-10-18T07:13:45.747Z,10.38
2022-10-18T07:16:18.386Z,10.44
2022-10-18T07:18:51.531Z,10.52
2022-10-18T07:21:23.946Z,10.61
2022-10-18T07:23:52.773Z,10.65
2022-10-18T07:26:29.010Z,10.71
2022-10-18T07:29:04.701Z,10.82
2022-10-18T07:31:33.492Z,10.92
2022-10-18T07:34:03.412Z,11.00
2022-10-18T07:36:31.341Z,11.09
2022-10-18T07:38:59.713Z,11.16
2022-10-18T07:41:27.681Z,11.25
2022-10-18T07:43:55.566Z,11.35
2022-10-18T07:46:23.394Z,11.44
2022-10-18T07:48:52.217Z,11.52
2022-10-18T07:51:20.897Z,11.60
2022-10-18T07:53:48.685Z,11.69
2022-10-18T07:56:21.166Z,11.77
2022-10-18T07:58:52.435Z,11.88
2022-10-18T08:01:22.441Z,11.98
2022-10-18T08:03:50.577Z,12.14
2022-10-18T08:06:20.451Z,12.26
2022-10-18T08:08:48.592Z,12.30
2022-10-18T08:11:19.311Z,12.37
2022-10-18T08:13:47.482Z,12.45
2022-10-18T08:16:22.166Z,12.54
2022-10-18T08:18:50.700Z,12.64
2022-10-18T08:21:20.260Z,12.73
2022-10-18T08:23:48.828Z,12.83
2022-10-18T08:26:20.086Z,12.94
2022-10-18T08:28:58.435Z,13.02
2022-10-18T08:31:37.614Z,13.09
2022-10-18T08:34:05.585Z,13.15
2022-10-18T08:36:34.022Z,13.20
2022-10-18T08:39:03.448Z,13.27
2022-10-18T08:41:37.024Z,13.36
2022-10-18T08:44:23.247Z,13.43
2022-10-18T08:46:55.911Z,13.51
2022-10-18T08:49:30.883Z,13.59
2022-10-18T08:51:59.004Z,13.67
2022-10-18T08:55:02.215Z,13.74
2022-10-18T08:57:31.799Z,13.84
2022-10-18T09:00:05.907Z,13.92
2022-10-18T09:02:52.674Z,13.96
2022-10-18T09:05:49.673Z,14.02
2022-10-18T09:08:38.431Z,14.06
2022-10-18T09:11:38.380Z,14.14
2022-10-18T09:14:19.603Z,14.23
2022-10-18T09:17:08.885Z,14.30
2022-10-18T09:19:56.000Z,14.37
2022-10-18T09:22:54.385Z,14.42
2022-10-18T09:25:22.465Z,14.44
2022-10-18T09:27:54.769Z,14.49
2022-10-18T09:30:49.277Z,14.54
2022-10-18T09:33:26.171Z,14.59
2022-10-18T09:36:01.214Z,14.63
2022-10-18T09:38:34.472Z,14.71
2022-10-18T09:41:09.421Z,14.77
2022-10-18T09:43:48.641Z,14.82
2022-10-18T09:46:20.377Z,14.91
2022-10-18T09:49:04.409Z,14.97
2022-10-18T09:51:38.959Z,15.00
2022-10-18T09:54:20.358Z,15.06
2022-10-18T09:56:58.349Z,15.18
2022-10-18T09:59:46.903Z,15.34
2022-10-18T10:02:23.679Z,15.47
2022-10-18T10:04:56.471Z,15.59
2022-10-18T10:07:32.542Z,15.72
2022-10-18T10:10:25.169Z,15.86
2022-10-18T10:13:17.229Z,15.98
2022-10-18T10:15:52.547Z,16.10
2022-10-18T10:18:28.502Z,16.20
2022-10-18T10:21:02.975Z,16.31
2022-10-18T10:23:37.390Z,16.42
2022-10-18T10:26:21.605Z,16.53
2022-10-18T10:28:50.606Z,16.64
2022-10-18T10:31:24.837Z,16.76
2022-10-18T10:34:03.043Z,16.85
2022-10-18T10:36:32.429Z,16.89
2022-10-18T10:39:03.236Z,16.94
2022-10-18T10:44:04.349Z,17.14
2022-10-18T10:46:36.629Z,17.21
2022-10-18T10:49:34.927Z,17.26
2022-10-18T10:52:09.350Z,17.32
2022-10-18T10:54:52.507Z,17.44
2022-10-18T10:57:27.608Z,17.55
2022-10-18T10:59:59.835Z,17.64
2022-10-18T11:02:33.758Z,17.71
2022-10-18T11:05:31.072Z,17.79
2022-10-18T11:08:02.957Z,17.89
2022-10-18T11:10:35.010Z,17.97
2022-10-18T11:13:09.970Z,17.95
2022-10-18T11:15:47.534Z,17.95
2022-10-18T11:18:27.199Z,17.95
2022-10-18T11:21:13.839Z,18.03
2022-10-18T11:23:44.263Z,18.03
2022-10-18T11:26:12.084Z,18.00
2022-10-18T11:28:46.246Z,18.02
2022-10-18T11:31:36.269Z,18.13
2022-10-18T11:34:22.998Z,18.20
2022-10-18T11:37:28.498Z,18.27
2022-10-18T11:40:36.378Z,18.37
2022-10-18T11:43:30.367Z,18.51
2022-10-18T11:46:26.763Z,18.63
2022-10-18T11:49:31.839Z,18.66
2022-10-18T11:52:13.572Z,18.68
2022-10-18T11:55:19.939Z,18.78
2022-10-18T11:58:12.971Z,18.84
2022-10-18T12:00:46.545Z,18.89
2022-10-18T12:03:29.630Z,18.97
2022-10-18T12:06:03.904Z,19.05
2022-10-18T12:08:41.883Z,19.20
2022-10-18T12:11:15.900Z,19.27
2022-10-18T12:13:53.377Z,19.34
2022-10-18T12:16:45.471Z,19.38
2022-10-18T12:19:23.368Z,19.42
2022-10-18T12:21:58.097Z,19.45
2022-10-18T12:24:30.210Z,19.45
2022-10-18T12:27:00.832Z,19.51
2022-10-18T12:29:34.975Z,19.53
2022-10-18T12:32:09.106Z,19.45
2022-10-18T12:35:00.482Z,19.42
2022-10-18T12:37:58.779Z,19.47
2022-10-18T12:40:42.808Z,19.48
2022-10-18T12:43:21.317Z,19.46
2022-10-18T12:45:51.982Z,19.51
2022-10-18T12:48:32.634Z,19.61
2022-10-18T12:51:04.960Z,19.64
2022-10-18T12:53:33.786Z,19.67
2022-10-18T12:56:29.754Z,19.69
2022-10-18T12:59:16.067Z,19.61
2022-10-18T13:01:53.002Z,19.47
2022-10-18T13:04:27.151Z,19.37
2022-10-18T13:06:57.770Z,19.38
2022-10-18T13:09:28.723Z,19.43
2022-10-18T13:12:16.790Z,19.51
2022-10-18T13:15:26.358Z,19.54
2022-10-18T13:18:33.852Z,19.58
2022-10-18T13:21:24.964Z,19.55
2022-10-18T13:24:09.968Z,19.46
2022-10-18T13:26:54.046Z,19.45
2022-10-18T13:29:37.736Z,19.44
2022-10-18T13:32:08.242Z,19.45
2022-10-18T13:34:39.051Z,19.46
2022-10-18T13:37:09.576Z,19.47
2022-10-18T13:39:39.850Z,19.48
2022-10-18T13:42:33.573Z,19.49
2022-10-18T13:45:30.872Z,19.50
2022-10-18T13:48:29.799Z,19.50
2022-10-18T13:51:27.342Z,19.49
2022-10-18T13:54:04.391Z,19.40
2022-10-18T13:56:41.404Z,19.31
2022-10-18T13:59:44.558Z,19.22
2022-10-18T14:02:57.709Z,19.12
2022-10-18T14:05:56.992Z,19.02
2022-10-18T14:11:25.048Z,18.89
2022-10-18T14:14:02.362Z,18.80
2022-10-18T14:17:17.623Z,18.75
2022-10-18T14:20:01.624Z,18.70
2022-10-18T14:22:38.044Z,18.65
2022-10-18T14:25:18.331Z,18.58
2022-10-18T14:27:50.873Z,18.50
2022-10-18T14:30:21.696Z,18.41
2022-10-18T14:32:52.174Z,18.34
2022-10-18T14:35:38.154Z,18.26
2022-10-18T14:38:13.572Z,18.14
2022-10-18T14:40:41.490Z,18.04
2022-10-18T14:43:09.213Z,17.99
2022-10-18T14:45:37.069Z,17.95
2022-10-18T14:48:14.954Z,17.91
2022-10-18T14:50:50.601Z,17.88
2022-10-18T14:53:25.169Z,17.86
2022-10-18T14:56:00.772Z,17.84
2022-10-18T14:58:28.978Z,17.80
2022-10-18T15:00:57.992Z,17.74
2022-10-18T15:03:28.428Z,17.68
2022-10-18T15:05:59.971Z,17.62
2022-10-18T15:08:51.577Z,17.54
2022-10-18T15:11:20.386Z,17.48
2022-10-18T15:13:52.217Z,17.42
2022-10-18T15:16:23.160Z,17.35
2022-10-18T15:19:03.089Z,17.28
2022-10-18T15:21:31.440Z,17.20
2022-10-18T15:24:19.351Z,17.11
2022-10-18T15:26:49.529Z,17.00
2022-10-18T15:29:21.205Z,16.89
2022-10-18T15:31:50.535Z,16.77
2022-10-18T15:34:28.097Z,16.66
2022-10-18T15:36:57.078Z,16.53
2022-10-18T15:39:31.251Z,16.42
2022-10-18T15:42:01.145Z,16.29
2022-10-18T15:44:46.833Z,16.17
2022-10-18T15:47:20.512Z,16.05
2022-10-18T15:49:51.753Z,15.93
2022-10-18T15:52:43.245Z,15.83
2022-10-18T15:55:42.140Z,15.71
2022-10-18T15:58:15.130Z,15.59
2022-10-18T16:00:45.052Z,15.48
2022-10-18T16:03:13.692Z,15.39
2022-10-18T16:05:42.006Z,15.29
2022-10-18T16:08:21.633Z,15.20
2022-10-18T16:10:50.018Z,15.11
2022-10-18T16:13:18.692Z,15.04
2022-10-18T16:15:47.023Z,14.98
2022-10-18T16:18:18.153Z,14.92
2022-10-18T16:20:48.027Z,14.86
2022-10-18T16:23:25.820Z,14.79
2022-10-18T16:25:54.208Z,14.74
2022-10-18T16:28:25.040Z,14.68
2022-10-18T16:30:55.019Z,14.61
2022-10-18T16:33:23.829Z,14.55
2022-10-18T16:35:52.553Z,14.49
2022-10-18T16:38:34.189Z,14.43
2022-10-18T16:41:05.935Z,14.37
2022-10-18T16:43:35.054Z,14.31
2022-10-18T16:46:04.477Z,14.22
2022-10-18T16:48:33.136Z,14.15
2022-10-18T16:51:01.121Z,14.07
2022-10-18T16:53:28.920Z,14.00
2022-10-18T16:55:59.937Z,13.94
2022-10-18T16:58:29.655Z,13.89
2022-10-18T17:00:57.783Z,13.85
2022-10-18T17:03:26.451Z,13.80
2022-10-18T17:05:54.493Z,13.77
2022-10-18T17:08:25.926Z,13.76
2022-10-18T17:10:56.884Z,13.76
2022-10-18T17:13:26.518Z,13.75
2022-10-18T17:15:54.551Z,13.75
2022-10-18T17:18:27.702Z,13.74
2022-10-18T17:20:56.631Z,13.75
2022-10-18T17:23:24.415Z,13.75
2022-10-18T17:26:05.263Z,13.74
2022-10-18T17:28:38.492Z,13.72
2022-10-18T17:31:07.690Z,13.71
2022-10-18T17:33:35.875Z,13.68
2022-10-18T17:36:04.121Z,13.68
2022-10-18T17:38:31.869Z,13.69
2022-10-18T17:40:59.627Z,13.70
2022-10-18T17:43:28.891Z,13.69
2022-10-18T17:45:56.910Z,13.67
2022-10-18T17:48:24.899Z,13.62
2022-10-18T17:50:52.711Z,13.58
2022-10-18T17:53:23.068Z,13.55
2022-10-18T17:55:51.086Z,13.53
2022-10-18T17:58:18.813Z,13.50
2022-10-18T18:00:46.552Z,13.48
2022-10-18T18:03:14.532Z,13.46
2022-10-18T18:05:42.423Z,13.45
2022-10-18T18:08:10.180Z,13.43
2022-10-18T18:10:38.036Z,13.41
2022-10-18T18:13:06.144Z,13.38
2022-10-18T18:15:33.956Z,13.36
2022-10-18T18:18:01.727Z,13.32
2022-10-18T18:20:29.411Z,13.28
2022-10-18T18:22:57.159Z,13.25
2022-10-18T18:25:24.961Z,13.20
2022-10-18T18:27:54.293Z,13.16
2022-10-18T18:30:23.176Z,13.13
2022-10-18T18:32:51.052Z,13.15
2022-10-18T18:35:18.839Z,13.15
2022-10-18T18:37:50.419Z,13.15
2022-10-18T18:40:18.177Z,13.15
2022-10-18T18:42:56.779Z,13.12
2022-10-18T18:45:33.782Z,13.09
2022-10-18T18:48:01.537Z,13.06
2022-10-18T18:50:31.845Z,13.02
2022-10-18T18:52:59.721Z,12.98
2022-10-18T18:55:27.405Z,12.94
2022-10-18T18:57:55.134Z,12.92
2022-10-18T19:00:22.880Z,12.92
2022-10-18T19:02:50.645Z,12.94
2022-10-18T19:05:18.499Z,12.96
2022-10-18T19:07:46.299Z,12.99
2022-10-18T19:10:14.145Z,12.99
2022-10-18T19:12:41.863Z,12.95
2022-10-18T19:15:09.768Z,12.91
2022-10-18T19:17:37.666Z,12.87
2022-10-18T19:20:06.655Z,12.81
2022-10-18T19:22:34.437Z,12.74
2022-10-18T19:25:02.178Z,12.67
2022-10-18T19:27:30.033Z,12.60
2022-10-18T19:29:57.930Z,12.55
2022-10-18T19:32:25.902Z,12.49
2022-10-18T19:34:53.635Z,12.40
2022-10-18T19:37:21.440Z,12.35
2022-10-18T19:39:49.568Z,12.29
2022-10-18T19:42:20.576Z,12.25
2022-10-18T19:44:53.897Z,12.20
2022-10-18T19:47:21.797Z,12.17
2022-10-18T19:49:49.667Z,12.14
2022-10-18T19:52:17.651Z,12.13
2022-10-18T19:54:45.708Z,12.12
2022-10-18T19:57:13.463Z,12.11
2022-10-18T20:02:15.261Z,12.08
2022-10-18T20:04:43.059Z,12.04
2022-10-18T20:07:10.824Z,12.00
2022-10-18T20:09:39.772Z,11.95
2022-10-18T20:12:07.550Z,11.91
2022-10-18T20:14:35.281Z,11.88
2022-10-18T20:17:03.064Z,11.86
2022-10-18T20:19:30.936Z,11.87
2022-10-18T20:21:58.766Z,11.85
2022-10-18T20:24:26.782Z,11.82
2022-10-18T20:26:54.542Z,11.79
2022-10-18T20:29:25.234Z,11.75
2022-10-18T20:31:55.608Z,11.72
2022-10-18T20:34:26.072Z,11.70
2022-10-18T20:36:55.256Z,11.69
2022-10-18T20:39:23.207Z,11.69
2022-10-18T20:41:51.001Z,11.69
2022-10-18T20:44:20.881Z,11.70
2022-10-18T20:46:48.653Z,11.71
2022-10-18T20:49:17.067Z,11.71
2022-10-18T20:51:44.933Z,11.71
2022-10-18T20:54:12.870Z,11.72
2022-10-18T20:56:40.737Z,11.71
2022-10-18T20:59:10.101Z,11.72
2022-10-18T21:01:39.451Z,11.70
2022-10-18T21:04:09.797Z,11.64
2022-10-18T21:06:41.416Z,11.55
2022-10-18T21:09:19.887Z,11.45
2022-10-18T21:11:50.756Z,11.34
2022-10-18T21:14:20.307Z,11.25
2022-10-18T21:16:49.724Z,11.18
2022-10-18T21:19:20.929Z,11.12
2022-10-18T21:21:51.323Z,11.06
2022-10-18T21:24:21.353Z,10.99
2022-10-18T21:26:49.224Z,10.93
2022-10-18T21:29:21.845Z,10.87
2022-10-18T21:31:54.132Z,10.81
2022-10-18T21:34:22.030Z,10.76
2022-10-18T21:36:49.796Z,10.72
2022-10-18T21:39:20.685Z,10.72
2022-10-18T21:41:48.938Z,10.74
2022-10-18T21:44:16.996Z,10.77
2022-10-18T21:46:46.779Z,10.81
2022-10-18T21:49:15.724Z,10.86
2022-10-18T21:51:44.408Z,10.92
2022-10-18T21:54:14.568Z,10.97
2022-10-18T21:56:42.436Z,11.02
2022-10-18T21:59:14.046Z,11.07
2022-10-18T22:01:44.139Z,11.13
2022-10-18T22:04:23.890Z,11.18
2022-10-18T22:06:52.232Z,11.22
2022-10-18T22:09:21.428Z,11.25
2022-10-18T22:11:52.715Z,11.29
2022-10-18T22:14:21.142Z,11.34
2022-10-18T22:16:49.124Z,11.36
2022-10-18T22:19:16.996Z,11.37
2022-10-18T22:21:44.759Z,11.36
2022-10-18T22:24:12.578Z,11.34
2022-10-18T22:26:42.302Z,11.33
2022-10-18T22:29:18.987Z,11.32
2022-10-18T22:31:49.439Z,11.30
2022-10-18T22:34:20.509Z,11.30
2022-10-18T22:36:48.838Z,11.30
2022-10-18T22:39:17.398Z,11.31
2022-10-18T22:41:45.371Z,11.32
2022-10-18T22:44:14.711Z,11.33
2022-10-18T22:46:42.863Z,11.33
2022-10-18T22:49:11.785Z,11.33
2022-10-18T22:51:40.875Z,11.31
2022-10-18T22:54:09.291Z,11.28
2022-10-18T22:56:37.103Z,11.25
2022-10-18T22:59:04.941Z,11.22
2022-10-18T23:01:32.698Z,11.20
2022-10-18T23:04:01.123Z,11.16
2022-10-18T23:06:31.954Z,11.12
2022-10-18T23:09:02.542Z,11.09
2022-10-18T23:11:31.295Z,11.07
2022-10-18T23:13:59.114Z,11.03
2022-10-18T23:16:29.473Z,11.00
2022-10-18T23:18:58.812Z,10.96
2022-10-18T23:21:28.176Z,10.90
2022-10-18T23:23:57.366Z,10.83
2022-10-18T23:26:27.607Z,10.77
2022-10-18T23:28:55.821Z,10.70
2022-10-18T23:31:28.081Z,10.65
2022-10-18T23:33:57.580Z,10.60
2022-10-18T23:36:26.242Z,10.57
2022-10-18T23:38:54.637Z,10.54
2022-10-18T23:41:22.923Z,10.52
2022-10-18T23:43:50.973Z,10.51
2022-10-18T23:46:19.257Z,10.52
2022-10-18T23:48:48.329Z,10.52
2022-10-18T23:51:17.127Z,10.52
2022-10-18T23:53:45.350Z,10.52
2022-10-18T23:56:15.712Z,10.53
2022-10-18T23:58:45.137Z,10.54
